Terminal Aerodrome Forecast
Issued by NWS

Home | Current Version | Previous Version | Graphics & Text | Print | Product List | Glossary On
Versions: 1 2 3 4 5 6 7 8 9 10 11 12 13 14 15 16 17 18 19
000
FTUS43 KMPX 242344
TAFAXN
TAF
KAXN 242344Z 2500/2524 31003KT P6SM OVC100
     FM250200 05009KT 5SM -SN SCT007 OVC012
      TEMPO 2504/2506 3SM -SN OVC007
     FM250700 04012KT P6SM BKN025
     FM251100 03007KT P6SM SCT025=

USA.gov is the U.S. government's official web portal to all federal, state and local government web resources and services.